Terminal Aerodrome Forecast
Issued by NWS Louisville, KY

Home | Current Version | Previous Version | Text Only | Print | Product List | Glossary On
Versions: 1 2 3 4 5 6 7 8 9 10 11 12 13 14 15 16 17 18 19
000
FTUS43 KLMK 231400 AAA
TAFSDF
TAF AMD
KSDF 231437Z 2315/2418 30004KT P6SM VCTS SCT040CB
      TEMPO 2315/2317 VRB10G20KT 2SM -TSRA BKN030CB
     FM231700 28008KT 6SM -TSRA BKN040CB
     FM232100 33008KT P6SM VCTS BKN045CB
     FM240100 36009KT P6SM BKN045=

USA.gov is the U.S. government's official web portal to all federal, state and local government web resources and services.